sensor_id;sensor_type;location;lat;lon;timestamp;temperature;humidity
22108;DHT22;11220;48.812;9.128;2023-12-29T00:01:15;18.10;76.20
22108;DHT22;11220;48.812;9.128;2023-12-29T00:03:40;18.10;76.20
22108;DHT22;11220;48.812;9.128;2023-12-29T00:06:06;18.10;76.20
22108;DHT22;11220;48.812;9.128;2023-12-29T00:08:32;18.10;76.20
22108;DHT22;11220;48.812;9.128;2023-12-29T00:10:58;18.10;76.20
22108;DHT22;11220;48.812;9.128;2023-12-29T00:13:23;18.10;76.20
22108;DHT22;11220;48.812;9.128;2023-12-29T00:15:54;18.10;76.30
22108;DHT22;11220;48.812;9.128;2023-12-29T00:18:20;18.10;76.20
22108;DHT22;11220;48.812;9.128;2023-12-29T00:20:46;18.10;76.20
22108;DHT22;11220;48.812;9.128;2023-12-29T00:23:12;18.10;76.20
22108;DHT22;11220;48.812;9.128;2023-12-29T00:25:37;18.10;76.20
22108;DHT22;11220;48.812;9.128;2023-12-29T00:28:04;18.00;76.10
22108;DHT22;11220;48.812;9.128;2023-12-29T00:30:29;18.10;76.10
22108;DHT22;11220;48.812;9.128;2023-12-29T00:32:58;18.00;76.10
22108;DHT22;11220;48.812;9.128;2023-12-29T00:35:23;18.00;76.10
22108;DHT22;11220;48.812;9.128;2023-12-29T00:37:50;18.00;76.10
22108;DHT22;11220;48.812;9.128;2023-12-29T00:40:15;18.00;76.10
22108;DHT22;11220;48.812;9.128;2023-12-29T00:42:41;18.00;76.10
22108;DHT22;11220;48.812;9.128;2023-12-29T00:45:07;18.00;76.10
22108;DHT22;11220;48.812;9.128;2023-12-29T00:47:33;18.00;76.20
22108;DHT22;11220;48.812;9.128;2023-12-29T00:50:00;18.00;76.20
22108;DHT22;11220;48.812;9.128;2023-12-29T00:52:26;18.00;76.10
22108;DHT22;11220;48.812;9.128;2023-12-29T00:54:51;18.00;76.10
22108;DHT22;11220;48.812;9.128;2023-12-29T00:57:17;18.00;76.10
22108;DHT22;11220;48.812;9.128;2023-12-29T00:59:42;18.00;76.10
22108;DHT22;11220;48.812;9.128;2023-12-29T01:02:09;18.00;76.20
22108;DHT22;11220;48.812;9.128;2023-12-29T01:04:37;18.00;76.20
22108;DHT22;11220;48.812;9.128;2023-12-29T01:07:04;18.00;76.10
22108;DHT22;11220;48.812;9.128;2023-12-29T01:09:30;18.00;76.10
22108;DHT22;11220;48.812;9.128;2023-12-29T01:11:55;18.00;76.10
22108;DHT22;11220;48.812;9.128;2023-12-29T01:14:21;18.00;76.10
22108;DHT22;11220;48.812;9.128;2023-12-29T01:16:46;18.00;76.10
22108;DHT22;11220;48.812;9.128;2023-12-29T01:19:12;18.00;76.20
22108;DHT22;11220;48.812;9.128;2023-12-29T01:21:38;18.00;76.10
22108;DHT22;11220;48.812;9.128;2023-12-29T01:24:04;17.90;76.00
22108;DHT22;11220;48.812;9.128;2023-12-29T01:26:30;17.90;76.00
22108;DHT22;11220;48.812;9.128;2023-12-29T01:28:55;17.90;76.00
22108;DHT22;11220;48.812;9.128;2023-12-29T01:31:22;18.00;76.10
22108;DHT22;11220;48.812;9.128;2023-12-29T01:33:47;17.90;76.10
22108;DHT22;11220;48.812;9.128;2023-12-29T01:36:19;18.00;76.10
22108;DHT22;11220;48.812;9.128;2023-12-29T01:38:45;18.10;76.10
22108;DHT22;11220;48.812;9.128;2023-12-29T01:41:10;17.90;76.00
22108;DHT22;11220;48.812;9.128;2023-12-29T01:43:36;17.90;76.00
22108;DHT22;11220;48.812;9.128;2023-12-29T01:46:01;17.90;76.00
22108;DHT22;11220;48.812;9.128;2023-12-29T01:48:27;17.90;76.00
22108;DHT22;11220;48.812;9.128;2023-12-29T01:50:53;17.90;76.10
22108;DHT22;11220;48.812;9.128;2023-12-29T01:53:20;17.90;76.00
22108;DHT22;11220;48.812;9.128;2023-12-29T01:55:46;17.90;76.00
22108;DHT22;11220;48.812;9.128;2023-12-29T01:58:12;17.90;76.10
22108;DHT22;11220;48.812;9.128;2023-12-29T02:00:38;17.90;76.00
22108;DHT22;11220;48.812;9.128;2023-12-29T02:03:04;17.90;76.00
22108;DHT22;11220;48.812;9.128;2023-12-29T02:05:30;18.00;76.10
22108;DHT22;11220;48.812;9.128;2023-12-29T02:07:58;17.90;76.00
22108;DHT22;11220;48.812;9.128;2023-12-29T02:10:24;17.90;76.10
22108;DHT22;11220;48.812;9.128;2023-12-29T02:12:50;17.90;76.00
22108;DHT22;11220;48.812;9.128;2023-12-29T02:15:16;17.90;76.10
22108;DHT22;11220;48.812;9.128;2023-12-29T02:17:47;17.90;76.20
22108;DHT22;11220;48.812;9.128;2023-12-29T02:20:16;17.90;76.10
22108;DHT22;11220;48.812;9.128;2023-12-29T02:22:41;17.90;76.10
22108;DHT22;11220;48.812;9.128;2023-12-29T02:25:07;17.90;76.10
22108;DHT22;11220;48.812;9.128;2023-12-29T02:27:57;17.90;76.10
22108;DHT22;11220;48.812;9.128;2023-12-29T02:32:59;17.90;76.10
22108;DHT22;11220;48.812;9.128;2023-12-29T02:35:28;17.90;76.10
22108;DHT22;11220;48.812;9.128;2023-12-29T02:37:54;17.90;76.10
22108;DHT22;11220;48.812;9.128;2023-12-29T02:40:20;17.90;76.20
22108;DHT22;11220;48.812;9.128;2023-12-29T02:42:49;17.90;76.20
22108;DHT22;11220;48.812;9.128;2023-12-29T02:45:16;17.90;76.20
22108;DHT22;11220;48.812;9.128;2023-12-29T02:47:42;17.90;76.20
22108;DHT22;11220;48.812;9.128;2023-12-29T02:50:09;17.90;76.20
22108;DHT22;11220;48.812;9.128;2023-12-29T02:52:35;17.90;76.10
22108;DHT22;11220;48.812;9.128;2023-12-29T02:55:00;17.80;76.00
22108;DHT22;11220;48.812;9.128;2023-12-29T02:57:26;17.90;76.20
22108;DHT22;11220;48.812;9.128;2023-12-29T02:59:51;17.90;76.10
22108;DHT22;11220;48.812;9.128;2023-12-29T03:02:17;17.80;76.00
22108;DHT22;11220;48.812;9.128;2023-12-29T03:04:42;17.80;76.00
22108;DHT22;11220;48.812;9.128;2023-12-29T03:07:09;17.90;76.10
22108;DHT22;11220;48.812;9.128;2023-12-29T03:09:34;17.80;77.00
22108;DHT22;11220;48.812;9.128;2023-12-29T03:12:00;17.80;76.10
22108;DHT22;11220;48.812;9.128;2023-12-29T03:14:25;17.80;76.00
22108;DHT22;11220;48.812;9.128;2023-12-29T03:16:51;17.80;76.00
22108;DHT22;11220;48.812;9.128;2023-12-29T03:19:16;17.80;76.00
22108;DHT22;11220;48.812;9.128;2023-12-29T03:21:42;17.80;76.00
22108;DHT22;11220;48.812;9.128;2023-12-29T03:24:07;17.80;76.00
22108;DHT22;11220;48.812;9.128;2023-12-29T03:26:33;17.80;76.00
22108;DHT22;11220;48.812;9.128;2023-12-29T03:28:59;17.80;76.00
22108;DHT22;11220;48.812;9.128;2023-12-29T03:31:24;17.80;76.00
22108;DHT22;11220;48.812;9.128;2023-12-29T03:33:50;17.80;76.00
22108;DHT22;11220;48.812;9.128;2023-12-29T03:36:15;17.80;76.00
22108;DHT22;11220;48.812;9.128;2023-12-29T03:38:41;17.70;75.80
22108;DHT22;11220;48.812;9.128;2023-12-29T03:41:07;17.80;76.00
22108;DHT22;11220;48.812;9.128;2023-12-29T03:43:32;17.80;75.90
22108;DHT22;11220;48.812;9.128;2023-12-29T03:45:58;17.80;75.90
22108;DHT22;11220;48.812;9.128;2023-12-29T03:48:23;17.80;75.90
22108;DHT22;11220;48.812;9.128;2023-12-29T03:50:49;17.80;75.90
22108;DHT22;11220;48.812;9.128;2023-12-29T03:53:14;17.80;75.90
22108;DHT22;11220;48.812;9.128;2023-12-29T03:55:41;17.80;75.90
22108;DHT22;11220;48.812;9.128;2023-12-29T03:58:06;17.80;75.90
22108;DHT22;11220;48.812;9.128;2023-12-29T04:00:32;17.80;75.90
22108;DHT22;11220;48.812;9.128;2023-12-29T04:02:57;17.80;75.90
22108;DHT22;11220;48.812;9.128;2023-12-29T04:05:23;17.80;75.80
22108;DHT22;11220;48.812;9.128;2023-12-29T04:07:48;17.80;75.80
22108;DHT22;11220;48.812;9.128;2023-12-29T04:10:14;17.80;75.80
22108;DHT22;11220;48.812;9.128;2023-12-29T04:12:40;17.70;75.80
22108;DHT22;11220;48.812;9.128;2023-12-29T04:15:06;17.70;75.80
22108;DHT22;11220;48.812;9.128;2023-12-29T04:17:31;17.80;75.80
22108;DHT22;11220;48.812;9.128;2023-12-29T04:19:57;17.80;75.90
22108;DHT22;11220;48.812;9.128;2023-12-29T04:22:22;17.80;75.90
22108;DHT22;11220;48.812;9.128;2023-12-29T04:24:48;17.70;75.80
22108;DHT22;11220;48.812;9.128;2023-12-29T04:27:14;17.70;76.00
22108;DHT22;11220;48.812;9.128;2023-12-29T04:29:40;17.70;76.00
22108;DHT22;11220;48.812;9.128;2023-12-29T04:32:06;17.70;76.00
22108;DHT22;11220;48.812;9.128;2023-12-29T04:34:31;17.80;76.00
22108;DHT22;11220;48.812;9.128;2023-12-29T04:36:57;17.70;76.00
22108;DHT22;11220;48.812;9.128;2023-12-29T04:39:22;17.80;76.00
22108;DHT22;11220;48.812;9.128;2023-12-29T04:41:48;17.70;76.00
22108;DHT22;11220;48.812;9.128;2023-12-29T04:44:13;17.70;76.00
22108;DHT22;11220;48.812;9.128;2023-12-29T04:46:39;17.70;76.00
22108;DHT22;11220;48.812;9.128;2023-12-29T04:49:04;17.80;76.10
22108;DHT22;11220;48.812;9.128;2023-12-29T04:51:30;17.70;76.00
22108;DHT22;11220;48.812;9.128;2023-12-29T04:53:55;17.80;76.00
22108;DHT22;11220;48.812;9.128;2023-12-29T04:56:21;17.70;76.00
22108;DHT22;11220;48.812;9.128;2023-12-29T04:58:46;17.70;76.00
22108;DHT22;11220;48.812;9.128;2023-12-29T05:01:12;17.70;76.10
22108;DHT22;11220;48.812;9.128;2023-12-29T05:03:37;17.80;76.10
22108;DHT22;11220;48.812;9.128;2023-12-29T05:06:03;17.70;76.00
22108;DHT22;11220;48.812;9.128;2023-12-29T05:08:29;17.70;76.00
22108;DHT22;11220;48.812;9.128;2023-12-29T05:10:54;17.70;76.10
22108;DHT22;11220;48.812;9.128;2023-12-29T05:13:20;17.70;76.10
22108;DHT22;11220;48.812;9.128;2023-12-29T05:15:46;17.70;76.10
22108;DHT22;11220;48.812;9.128;2023-12-29T05:18:11;17.70;76.10
22108;DHT22;11220;48.812;9.128;2023-12-29T05:20:37;17.70;76.10
22108;DHT22;11220;48.812;9.128;2023-12-29T05:23:03;17.70;76.10
22108;DHT22;11220;48.812;9.128;2023-12-29T05:25:28;17.70;76.10
22108;DHT22;11220;48.812;9.128;2023-12-29T05:27:54;17.70;76.20
22108;DHT22;11220;48.812;9.128;2023-12-29T05:30:19;17.70;76.20
22108;DHT22;11220;48.812;9.128;2023-12-29T05:32:45;17.70;76.10
22108;DHT22;11220;48.812;9.128;2023-12-29T05:35:10;17.70;76.20
22108;DHT22;11220;48.812;9.128;2023-12-29T05:37:36;17.70;76.20
22108;DHT22;11220;48.812;9.128;2023-12-29T05:40:02;17.70;76.20
22108;DHT22;11220;48.812;9.128;2023-12-29T05:42:27;17.70;76.20
22108;DHT22;11220;48.812;9.128;2023-12-29T05:44:53;17.70;76.20
22108;DHT22;11220;48.812;9.128;2023-12-29T05:47:18;17.70;76.10
22108;DHT22;11220;48.812;9.128;2023-12-29T05:49:44;17.70;76.10
22108;DHT22;11220;48.812;9.128;2023-12-29T05:52:09;17.70;76.10
22108;DHT22;11220;48.812;9.128;2023-12-29T05:54:35;17.70;76.10
22108;DHT22;11220;48.812;9.128;2023-12-29T05:57:01;17.70;76.10
22108;DHT22;11220;48.812;9.128;2023-12-29T05:59:26;17.70;76.10
22108;DHT22;11220;48.812;9.128;2023-12-29T06:01:52;17.70;76.10
22108;DHT22;11220;48.812;9.128;2023-12-29T06:04:18;17.70;76.10
22108;DHT22;11220;48.812;9.128;2023-12-29T06:06:43;17.80;76.20
22108;DHT22;11220;48.812;9.128;2023-12-29T06:09:09;17.70;76.10
22108;DHT22;11220;48.812;9.128;2023-12-29T06:11:35;17.80;76.20
22108;DHT22;11220;48.812;9.128;2023-12-29T06:14:01;17.80;76.20
22108;DHT22;11220;48.812;9.128;2023-12-29T06:16:27;17.80;76.20
22108;DHT22;11220;48.812;9.128;2023-12-29T06:18:53;17.90;76.30
22108;DHT22;11220;48.812;9.128;2023-12-29T06:21:18;17.90;76.20
22108;DHT22;11220;48.812;9.128;2023-12-29T06:23:44;17.90;76.20
22108;DHT22;11220;48.812;9.128;2023-12-29T06:26:15;17.90;76.20
22108;DHT22;11220;48.812;9.128;2023-12-29T06:28:41;18.00;76.20
22108;DHT22;11220;48.812;9.128;2023-12-29T06:31:06;18.10;76.30
22108;DHT22;11220;48.812;9.128;2023-12-29T06:33:32;18.00;76.10
22108;DHT22;11220;48.812;9.128;2023-12-29T06:35:57;18.00;76.10
22108;DHT22;11220;48.812;9.128;2023-12-29T06:38:23;18.10;76.00
22108;DHT22;11220;48.812;9.128;2023-12-29T06:40:49;18.10;76.00
22108;DHT22;11220;48.812;9.128;2023-12-29T06:43:14;18.10;76.00
22108;DHT22;11220;48.812;9.128;2023-12-29T06:45:39;18.10;75.90
22108;DHT22;11220;48.812;9.128;2023-12-29T06:48:05;18.40;76.00
22108;DHT22;11220;48.812;9.128;2023-12-29T06:50:31;18.20;75.80
22108;DHT22;11220;48.812;9.128;2023-12-29T06:52:56;18.20;75.70
22108;DHT22;11220;48.812;9.128;2023-12-29T06:55:22;18.20;75.60
22108;DHT22;11220;48.812;9.128;2023-12-29T06:57:47;18.30;75.60
22108;DHT22;11220;48.812;9.128;2023-12-29T07:00:13;18.30;75.50
22108;DHT22;11220;48.812;9.128;2023-12-29T07:02:39;18.30;75.50
22108;DHT22;11220;48.812;9.128;2023-12-29T07:05:05;18.30;75.40
22108;DHT22;11220;48.812;9.128;2023-12-29T07:07:31;18.30;75.30
22108;DHT22;11220;48.812;9.128;2023-12-29T07:09:57;18.40;75.30
22108;DHT22;11220;48.812;9.128;2023-12-29T07:12:22;18.40;75.30
22108;DHT22;11220;48.812;9.128;2023-12-29T07:14:48;18.40;75.20
22108;DHT22;11220;48.812;9.128;2023-12-29T07:17:13;18.90;75.50
22108;DHT22;11220;48.812;9.128;2023-12-29T07:19:39;18.40;75.20
22108;DHT22;11220;48.812;9.128;2023-12-29T07:22:05;18.40;75.10
22108;DHT22;11220;48.812;9.128;2023-12-29T07:24:32;18.40;75.10
22108;DHT22;11220;48.812;9.128;2023-12-29T07:26:58;18.50;75.10
22108;DHT22;11220;48.812;9.128;2023-12-29T07:29:23;18.40;75.00
22108;DHT22;11220;48.812;9.128;2023-12-29T07:31:49;18.50;75.10
22108;DHT22;11220;48.812;9.128;2023-12-29T07:34:14;18.50;75.10
22108;DHT22;11220;48.812;9.128;2023-12-29T07:36:40;18.50;75.10
22108;DHT22;11220;48.812;9.128;2023-12-29T07:39:06;18.50;75.00
22108;DHT22;11220;48.812;9.128;2023-12-29T07:41:31;18.50;75.00
22108;DHT22;11220;48.812;9.128;2023-12-29T07:43:57;18.50;75.10
22108;DHT22;11220;48.812;9.128;2023-12-29T07:46:26;18.50;75.00
22108;DHT22;11220;48.812;9.128;2023-12-29T07:48:52;18.50;75.00
22108;DHT22;11220;48.812;9.128;2023-12-29T07:51:18;18.50;75.00
22108;DHT22;11220;48.812;9.128;2023-12-29T07:53:44;18.50;75.00
22108;DHT22;11220;48.812;9.128;2023-12-29T07:56:12;18.50;75.00
22108;DHT22;11220;48.812;9.128;2023-12-29T07:58:38;18.70;75.10
22108;DHT22;11220;48.812;9.128;2023-12-29T08:01:03;18.50;75.00
22108;DHT22;11220;48.812;9.128;2023-12-29T08:03:29;18.50;74.90
22108;DHT22;11220;48.812;9.128;2023-12-29T08:05:54;18.50;75.00
22108;DHT22;11220;48.812;9.128;2023-12-29T08:08:20;18.50;75.00
22108;DHT22;11220;48.812;9.128;2023-12-29T08:10:45;18.60;75.10
22108;DHT22;11220;48.812;9.128;2023-12-29T08:13:11;18.60;75.00
22108;DHT22;11220;48.812;9.128;2023-12-29T08:15:36;18.60;75.10
22108;DHT22;11220;48.812;9.128;2023-12-29T08:18:03;18.60;75.10
22108;DHT22;11220;48.812;9.128;2023-12-29T08:20:29;18.60;75.10
22108;DHT22;11220;48.812;9.128;2023-12-29T08:22:55;18.60;75.10
22108;DHT22;11220;48.812;9.128;2023-12-29T08:25:22;18.60;75.10
22108;DHT22;11220;48.812;9.128;2023-12-29T08:27:48;18.60;75.20
22108;DHT22;11220;48.812;9.128;2023-12-29T08:30:14;18.60;75.20
22108;DHT22;11220;48.812;9.128;2023-12-29T08:32:39;18.60;75.20
22108;DHT22;11220;48.812;9.128;2023-12-29T08:35:05;18.60;75.20
22108;DHT22;11220;48.812;9.128;2023-12-29T08:37:31;18.60;75.20
22108;DHT22;11220;48.812;9.128;2023-12-29T08:39:59;18.60;75.30
22108;DHT22;11220;48.812;9.128;2023-12-29T08:42:24;18.60;75.30
22108;DHT22;11220;48.812;9.128;2023-12-29T08:44:50;18.60;75.30
22108;DHT22;11220;48.812;9.128;2023-12-29T08:47:15;18.60;75.30
22108;DHT22;11220;48.812;9.128;2023-12-29T08:49:42;18.60;75.30
22108;DHT22;11220;48.812;9.128;2023-12-29T08:52:07;18.60;75.40
22108;DHT22;11220;48.812;9.128;2023-12-29T08:54:34;18.60;75.40
22108;DHT22;11220;48.812;9.128;2023-12-29T08:57:00;18.60;75.50
22108;DHT22;11220;48.812;9.128;2023-12-29T08:59:25;18.60;75.50
22108;DHT22;11220;48.812;9.128;2023-12-29T09:01:51;18.60;75.50
22108;DHT22;11220;48.812;9.128;2023-12-29T09:04:16;18.70;75.70
22108;DHT22;11220;48.812;9.128;2023-12-29T09:06:42;18.60;75.60
22108;DHT22;11220;48.812;9.128;2023-12-29T09:09:07;18.60;75.60
22108;DHT22;11220;48.812;9.128;2023-12-29T09:11:44;18.60;75.70
22108;DHT22;11220;48.812;9.128;2023-12-29T09:14:10;18.60;75.70
22108;DHT22;11220;48.812;9.128;2023-12-29T09:16:36;18.60;75.70
22108;DHT22;11220;48.812;9.128;2023-12-29T09:19:02;18.60;75.70
22108;DHT22;11220;48.812;9.128;2023-12-29T09:21:27;18.60;75.80
22108;DHT22;11220;48.812;9.128;2023-12-29T09:23:53;18.60;75.80
22108;DHT22;11220;48.812;9.128;2023-12-29T09:26:18;18.60;75.80
22108;DHT22;11220;48.812;9.128;2023-12-29T09:28:44;18.60;75.90
22108;DHT22;11220;48.812;9.128;2023-12-29T09:31:10;18.60;75.90
22108;DHT22;11220;48.812;9.128;2023-12-29T09:33:36;18.60;75.90
22108;DHT22;11220;48.812;9.128;2023-12-29T09:36:03;18.60;75.90
22108;DHT22;11220;48.812;9.128;2023-12-29T09:38:28;18.60;75.90
22108;DHT22;11220;48.812;9.128;2023-12-29T09:40:55;18.60;75.90
22108;DHT22;11220;48.812;9.128;2023-12-29T09:43:25;18.60;75.90
22108;DHT22;11220;48.812;9.128;2023-12-29T09:45:52;18.60;76.00
22108;DHT22;11220;48.812;9.128;2023-12-29T09:48:19;18.60;76.00
22108;DHT22;11220;48.812;9.128;2023-12-29T09:50:46;18.60;76.00
22108;DHT22;11220;48.812;9.128;2023-12-29T09:53:12;18.70;76.10
22108;DHT22;11220;48.812;9.128;2023-12-29T09:55:40;18.60;76.00
22108;DHT22;11220;48.812;9.128;2023-12-29T09:58:07;18.60;76.00
22108;DHT22;11220;48.812;9.128;2023-12-29T10:00:34;18.60;76.10
22108;DHT22;11220;48.812;9.128;2023-12-29T10:03:00;18.60;76.10
22108;DHT22;11220;48.812;9.128;2023-12-29T10:05:26;18.60;76.20
22108;DHT22;11220;48.812;9.128;2023-12-29T10:07:52;18.60;76.20
22108;DHT22;11220;48.812;9.128;2023-12-29T10:10:20;18.60;76.20
22108;DHT22;11220;48.812;9.128;2023-12-29T10:12:48;18.60;76.30
22108;DHT22;11220;48.812;9.128;2023-12-29T10:15:24;18.60;76.30
22108;DHT22;11220;48.812;9.128;2023-12-29T10:20:59;18.60;76.60
22108;DHT22;11220;48.812;9.128;2023-12-29T10:23:39;18.60;76.70
22108;DHT22;11220;48.812;9.128;2023-12-29T10:26:07;18.60;76.80
22108;DHT22;11220;48.812;9.128;2023-12-29T10:28:35;18.60;76.80
22108;DHT22;11220;48.812;9.128;2023-12-29T10:31:04;18.60;76.90
22108;DHT22;11220;48.812;9.128;2023-12-29T10:33:30;18.70;77.00
22108;DHT22;11220;48.812;9.128;2023-12-29T10:36:03;18.70;77.20
22108;DHT22;11220;48.812;9.128;2023-12-29T10:38:30;18.70;77.20
22108;DHT22;11220;48.812;9.128;2023-12-29T10:41:15;18.70;77.40
22108;DHT22;11220;48.812;9.128;2023-12-29T10:43:43;18.70;77.40
22108;DHT22;11220;48.812;9.128;2023-12-29T10:46:09;18.70;78.30
22108;DHT22;11220;48.812;9.128;2023-12-29T10:48:36;18.70;77.30
22108;DHT22;11220;48.812;9.128;2023-12-29T10:51:05;18.90;77.40
22108;DHT22;11220;48.812;9.128;2023-12-29T10:53:32;18.80;77.30
22108;DHT22;11220;48.812;9.128;2023-12-29T10:55:58;18.80;77.20
22108;DHT22;11220;48.812;9.128;2023-12-29T10:58:25;18.80;77.10
22108;DHT22;11220;48.812;9.128;2023-12-29T11:00:53;18.80;77.00
22108;DHT22;11220;48.812;9.128;2023-12-29T11:03:19;18.80;76.90
22108;DHT22;11220;48.812;9.128;2023-12-29T11:05:45;18.80;76.90
22108;DHT22;11220;48.812;9.128;2023-12-29T11:08:18;18.80;76.90
22108;DHT22;11220;48.812;9.128;2023-12-29T11:10:44;18.80;76.80
22108;DHT22;11220;48.812;9.128;2023-12-29T11:13:11;18.90;76.80
22108;DHT22;11220;48.812;9.128;2023-12-29T11:15:43;18.90;76.70
22108;DHT22;11220;48.812;9.128;2023-12-29T11:18:18;18.90;76.70
22108;DHT22;11220;48.812;9.128;2023-12-29T11:20:45;18.90;76.60
22108;DHT22;11220;48.812;9.128;2023-12-29T11:23:12;18.90;76.50
22108;DHT22;11220;48.812;9.128;2023-12-29T11:25:43;18.90;76.50
22108;DHT22;11220;48.812;9.128;2023-12-29T11:28:11;18.90;76.50
22108;DHT22;11220;48.812;9.128;2023-12-29T11:30:39;18.90;76.50
22108;DHT22;11220;48.812;9.128;2023-12-29T11:33:18;18.90;76.50
22108;DHT22;11220;48.812;9.128;2023-12-29T11:35:56;18.90;76.50
22108;DHT22;11220;48.812;9.128;2023-12-29T11:38:29;18.90;76.50
22108;DHT22;11220;48.812;9.128;2023-12-29T11:43:34;19.00;76.40
22108;DHT22;11220;48.812;9.128;2023-12-29T11:46:00;18.90;76.30
22108;DHT22;11220;48.812;9.128;2023-12-29T11:48:57;19.00;76.40
22108;DHT22;11220;48.812;9.128;2023-12-29T11:51:43;18.90;76.30
22108;DHT22;11220;48.812;9.128;2023-12-29T11:54:09;18.90;76.30
22108;DHT22;11220;48.812;9.128;2023-12-29T11:56:38;18.90;76.30
22108;DHT22;11220;48.812;9.128;2023-12-29T11:59:21;19.00;76.30
22108;DHT22;11220;48.812;9.128;2023-12-29T12:02:06;18.90;76.20
22108;DHT22;11220;48.812;9.128;2023-12-29T12:04:51;18.90;76.30
22108;DHT22;11220;48.812;9.128;2023-12-29T12:09:49;19.00;76.20
22108;DHT22;11220;48.812;9.128;2023-12-29T12:12:41;18.80;73.60
22108;DHT22;11220;48.812;9.128;2023-12-29T12:17:58;18.60;69.70
22108;DHT22;11220;48.812;9.128;2023-12-29T12:20:25;18.50;71.70
22108;DHT22;11220;48.812;9.128;2023-12-29T12:25:31;18.50;74.40
22108;DHT22;11220;48.812;9.128;2023-12-29T12:28:01;18.50;74.80
22108;DHT22;11220;48.812;9.128;2023-12-29T12:30:28;19.90;75.90
22108;DHT22;11220;48.812;9.128;2023-12-29T12:32:58;18.60;75.10
22108;DHT22;11220;48.812;9.128;2023-12-29T12:35:24;18.70;75.30
22108;DHT22;11220;48.812;9.128;2023-12-29T12:38:13;18.70;75.30
22108;DHT22;11220;48.812;9.128;2023-12-29T12:40:43;18.80;75.50
22108;DHT22;11220;48.812;9.128;2023-12-29T12:43:13;18.80;75.40
22108;DHT22;11220;48.812;9.128;2023-12-29T12:45:46;18.90;75.40
22108;DHT22;11220;48.812;9.128;2023-12-29T12:48:19;18.90;75.40
22108;DHT22;11220;48.812;9.128;2023-12-29T12:50:46;18.90;75.40
22108;DHT22;11220;48.812;9.128;2023-12-29T12:53:13;18.90;75.40
22108;DHT22;11220;48.812;9.128;2023-12-29T12:55:45;19.00;75.40
22108;DHT22;11220;48.812;9.128;2023-12-29T12:58:12;19.00;75.50
22108;DHT22;11220;48.812;9.128;2023-12-29T13:00:39;19.00;75.40
22108;DHT22;11220;48.812;9.128;2023-12-29T13:03:04;19.00;75.40
22108;DHT22;11220;48.812;9.128;2023-12-29T13:05:30;19.10;75.60
22108;DHT22;11220;48.812;9.128;2023-12-29T13:07:56;19.10;75.60
22108;DHT22;11220;48.812;9.128;2023-12-29T13:10:22;19.10;75.50
22108;DHT22;11220;48.812;9.128;2023-12-29T13:12:52;19.10;75.50
22108;DHT22;11220;48.812;9.128;2023-12-29T13:15:19;19.20;75.50
22108;DHT22;11220;48.812;9.128;2023-12-29T13:17:54;19.20;75.50
22108;DHT22;11220;48.812;9.128;2023-12-29T13:20:20;19.20;75.50
22108;DHT22;11220;48.812;9.128;2023-12-29T13:22:49;19.20;75.40
22108;DHT22;11220;48.812;9.128;2023-12-29T13:25:20;19.20;75.40
22108;DHT22;11220;48.812;9.128;2023-12-29T13:27:48;19.20;75.40
22108;DHT22;11220;48.812;9.128;2023-12-29T13:30:14;19.20;75.30
22108;DHT22;11220;48.812;9.128;2023-12-29T13:32:40;19.20;75.30
22108;DHT22;11220;48.812;9.128;2023-12-29T13:37:53;19.20;75.30
22108;DHT22;11220;48.812;9.128;2023-12-29T13:42:50;19.20;75.30
22108;DHT22;11220;48.812;9.128;2023-12-29T13:45:18;19.30;75.40
22108;DHT22;11220;48.812;9.128;2023-12-29T13:47:46;19.20;75.30
22108;DHT22;11220;48.812;9.128;2023-12-29T13:50:12;19.20;75.30
22108;DHT22;11220;48.812;9.128;2023-12-29T13:52:38;19.20;75.30
22108;DHT22;11220;48.812;9.128;2023-12-29T13:55:04;19.20;75.30
22108;DHT22;11220;48.812;9.128;2023-12-29T13:57:31;19.20;75.30
22108;DHT22;11220;48.812;9.128;2023-12-29T13:59:57;19.20;75.30
22108;DHT22;11220;48.812;9.128;2023-12-29T14:02:27;19.20;75.30
22108;DHT22;11220;48.812;9.128;2023-12-29T14:05:23;19.20;75.30
22108;DHT22;11220;48.812;9.128;2023-12-29T14:08:18;19.20;75.30
22108;DHT22;11220;48.812;9.128;2023-12-29T14:10:45;19.20;75.20
22108;DHT22;11220;48.812;9.128;2023-12-29T14:13:15;19.20;75.20
22108;DHT22;11220;48.812;9.128;2023-12-29T14:15:43;19.20;75.20
22108;DHT22;11220;48.812;9.128;2023-12-29T14:20:41;19.20;75.20
22108;DHT22;11220;48.812;9.128;2023-12-29T14:23:07;19.20;75.20
22108;DHT22;11220;48.812;9.128;2023-12-29T14:25:34;19.30;75.20
22108;DHT22;11220;48.812;9.128;2023-12-29T14:28:22;19.20;75.20
22108;DHT22;11220;48.812;9.128;2023-12-29T14:30:48;19.20;75.10
22108;DHT22;11220;48.812;9.128;2023-12-29T14:33:13;19.20;75.20
22108;DHT22;11220;48.812;9.128;2023-12-29T14:35:39;19.20;75.30
22108;DHT22;11220;48.812;9.128;2023-12-29T14:38:05;19.20;75.10
22108;DHT22;11220;48.812;9.128;2023-12-29T14:40:31;19.10;74.60
22108;DHT22;11220;48.812;9.128;2023-12-29T14:43:00;19.20;74.40
22108;DHT22;11220;48.812;9.128;2023-12-29T14:45:25;19.20;74.10
22108;DHT22;11220;48.812;9.128;2023-12-29T14:47:51;19.20;74.40
22108;DHT22;11220;48.812;9.128;2023-12-29T14:50:16;19.90;74.30
22108;DHT22;11220;48.812;9.128;2023-12-29T14:52:42;19.20;73.90
22108;DHT22;11220;48.812;9.128;2023-12-29T14:55:08;19.20;73.90
22108;DHT22;11220;48.812;9.128;2023-12-29T14:57:33;19.20;73.70
22108;DHT22;11220;48.812;9.128;2023-12-29T14:59:59;19.20;73.70
22108;DHT22;11220;48.812;9.128;2023-12-29T15:02:24;19.20;73.50
22108;DHT22;11220;48.812;9.128;2023-12-29T15:04:50;19.30;73.50
22108;DHT22;11220;48.812;9.128;2023-12-29T15:07:16;19.30;74.40
22108;DHT22;11220;48.812;9.128;2023-12-29T15:09:43;19.20;73.40
22108;DHT22;11220;48.812;9.128;2023-12-29T15:12:09;19.30;73.40
22108;DHT22;11220;48.812;9.128;2023-12-29T15:14:34;19.30;73.40
22108;DHT22;11220;48.812;9.128;2023-12-29T15:17:00;19.30;73.60
22108;DHT22;11220;48.812;9.128;2023-12-29T15:19:25;19.50;73.70
22108;DHT22;11220;48.812;9.128;2023-12-29T15:21:51;19.30;73.60
22108;DHT22;11220;48.812;9.128;2023-12-29T15:24:22;19.30;73.60
22108;DHT22;11220;48.812;9.128;2023-12-29T15:26:48;19.30;73.70
22108;DHT22;11220;48.812;9.128;2023-12-29T15:29:13;19.30;73.70
22108;DHT22;11220;48.812;9.128;2023-12-29T15:31:42;19.80;74.00
22108;DHT22;11220;48.812;9.128;2023-12-29T15:34:09;20.10;74.20
22108;DHT22;11220;48.812;9.128;2023-12-29T15:36:35;19.30;73.80
22108;DHT22;11220;48.812;9.128;2023-12-29T15:39:00;19.30;73.80
22108;DHT22;11220;48.812;9.128;2023-12-29T15:41:26;19.30;73.80
22108;DHT22;11220;48.812;9.128;2023-12-29T15:43:51;19.30;73.90
22108;DHT22;11220;48.812;9.128;2023-12-29T15:46:18;19.30;73.90
22108;DHT22;11220;48.812;9.128;2023-12-29T15:48:47;19.70;74.20
22108;DHT22;11220;48.812;9.128;2023-12-29T15:51:13;19.50;74.10
22108;DHT22;11220;48.812;9.128;2023-12-29T15:53:39;19.40;74.10